Time;durP1;ratioP1;P1;durP2;ratioP2;P2;SDS_P1;SDS_P2;PMS_P1;PMS_P2;Temp;Humidity;BMP_temperature;BMP_pressure;BME280_temperature;BME280_humidity;BME280_pressure;Samples;Min_cycle;Max_cycle;Signal;HPM_P1;HPM_P2
2022/07/18 00:02:02;;;;;;;0.75;0.70;;;;;;;21.74;64.16;101737.97;4957033;28;102412;-65
2022/07/18 00:04:29;;;;;;;2.40;1.10;;;;;;;21.75;64.19;101739.63;4945147;28;102267;-64
2022/07/18 00:06:56;;;;;;;1.80;1.05;;;;;;;21.75;64.14;101738.81;4941250;28;102441;-64
2022/07/18 00:09:23;;;;;;;1.52;0.80;;;;;;;21.75;64.38;101739.63;4947525;28;104100;-65
2022/07/18 00:11:53;;;;;;;1.98;0.80;;;;;;;21.75;64.38;101747.94;4943135;28;102257;-66
2022/07/18 00:14:20;;;;;;;1.23;1.00;;;;;;;21.74;64.15;101751.81;4951130;28;102963;-65
2022/07/18 00:16:49;;;;;;;0.90;0.68;;;;;;;21.75;63.85;101750.69;4959820;28;102050;-64
2022/07/18 00:19:16;;;;;;;;;;;;;;;21.75;64.12;101750.69;4959631;28;103934;-65
2022/07/18 00:21:43;;;;;;;0.90;0.80;;;;;;;21.76;63.91;101757.88;4959530;28;102125;-64
2022/07/18 00:24:10;;;;;;;1.10;1.00;;;;;;;21.76;63.86;101763.41;4959413;28;102522;-65
2022/07/18 00:26:36;;;;;;;13.30;1.17;;;;;;;21.77;63.94;101764.22;4952202;28;102489;-65
2022/07/18 00:29:03;;;;;;;0.90;0.90;;;;;;;21.78;63.75;101765.84;4941612;28;104113;-65
2022/07/18 00:31:31;;;;;;;1.13;0.75;;;;;;;21.77;64.04;101759.50;4960044;28;102646;-64
2022/07/18 00:33:59;;;;;;;2.17;0.80;;;;;;;21.76;63.86;101763.41;4957635;28;102175;-64
2022/07/18 00:36:26;;;;;;;0.90;0.90;;;;;;;21.77;64.11;101769.75;4960325;28;102300;-66
2022/07/18 00:38:52;;;;;;;0.98;0.90;;;;;;;21.76;64.40;101763.41;4957341;28;103929;-66
2022/07/18 00:41:19;;;;;;;1.20;0.90;;;;;;;21.76;64.08;101768.94;4946266;28;102162;-65
2022/07/18 00:43:45;;;;;;;2.95;0.90;;;;;;;21.78;64.31;101771.38;4952346;28;102383;-66
2022/07/18 00:46:12;;;;;;;1.15;0.93;;;;;;;21.76;64.67;101766.19;4959993;28;102206;-65
2022/07/18 00:48:39;;;;;;;1.10;0.90;;;;;;;21.75;64.55;101770.09;4959408;28;104093;-65
2022/07/18 00:51:09;;;;;;;0.98;0.90;;;;;;;21.76;64.72;101777.25;4959671;28;102308;-65
2022/07/18 00:53:35;;;;;;;;;;;;;;;21.75;64.65;101778.41;4949474;28;102418;-65
2022/07/18 00:56:04;;;;;;;0.90;0.90;;;;;;;21.74;64.48;101776.75;4959346;28;102502;-65
2022/07/18 00:58:31;;;;;;;0.90;0.88;;;;;;;21.75;64.80;101772.88;4947579;28;104142;-65
2022/07/18 01:03:43;;;;;;;1.15;0.90;;;;;;;21.76;64.58;101763.41;4957909;28;102157;-65
2022/07/18 01:06:12;;;;;;;1.48;0.88;;;;;;;21.74;64.64;101760.13;4960689;28;102245;-65
2022/07/18 01:08:41;;;;;;;1.37;1.00;;;;;;;21.75;64.57;101760.97;4951472;28;104065;-66
2022/07/18 01:11:09;;;;;;;1.10;0.90;;;;;;;21.75;64.56;101759.00;4951680;28;102209;-65
2022/07/18 01:13:38;;;;;;;0.80;0.80;;;;;;;21.76;64.73;101759.81;4955814;28;102387;-67
2022/07/18 01:16:05;;;;;;;1.10;1.00;;;;;;;21.75;64.52;101764.56;4948664;28;102554;-65
2022/07/18 01:18:31;;;;;;;1.38;0.80;;;;;;;21.74;64.41;101765.66;4946304;28;104103;-66
2022/07/18 01:20:59;;;;;;;1.02;0.90;;;;;;;21.74;64.12;101765.66;4959133;28;102037;-66
2022/07/18 01:23:26;;;;;;;;;;;;;;;21.75;64.55;101766.50;4953305;28;102345;-65
2022/07/18 01:25:53;;;;;;;0.82;0.63;;;;;;;21.74;64.37;101765.66;4959750;28;102320;-66
2022/07/18 01:28:19;;;;;;;2.35;1.00;;;;;;;21.74;63.87;101771.22;4955809;28;108992;-63
2022/07/18 01:30:46;;;;;;;0.77;0.77;;;;;;;21.75;63.97;101778.41;4957912;28;102354;-65
2022/07/18 01:33:12;;;;;;;1.15;0.70;;;;;;;21.73;64.05;101775.13;4958035;28;102232;-64
2022/07/18 01:35:39;;;;;;;0.75;0.70;;;;;;;21.73;64.20;101771.53;4960045;28;102195;-66
2022/07/18 01:38:07;;;;;;;0.70;0.70;;;;;;;21.71;64.53;101776.56;4948614;28;104238;-65
2022/07/18 01:40:34;;;;;;;1.27;1.00;;;;;;;21.71;64.31;101773.81;4958416;28;102346;-64
2022/07/18 01:43:00;;;;;;;2.17;0.80;;;;;;;21.70;64.05;101775.78;4952422;28;102417;-65
2022/07/18 01:45:27;;;;;;;1.08;0.80;;;;;;;21.69;64.08;101765.84;4959279;28;102346;-65
2022/07/18 01:47:53;;;;;;;0.80;0.80;;;;;;;21.70;64.30;101775.78;4956155;28;104096;-65
2022/07/18 01:50:20;;;;;;;1.30;1.00;;;;;;;21.70;63.82;101780.50;4957005;28;102320;-65
2022/07/18 01:52:47;;;;;;;15.73;0.95;;;;;;;21.68;64.03;101771.72;4954374;28;102209;-65
2022/07/18 01:55:16;;;;;;;1.67;0.67;;;;;;;21.68;63.85;101772.53;4958007;28;102435;-67
2022/07/18 01:57:43;;;;;;;0.98;0.70;;;;;;;21.68;64.05;101777.25;4951192;28;103979;-66
2022/07/18 02:00:11;;;;;;;1.15;0.82;;;;;;;21.67;64.20;101770.88;4959684;28;102605;-65
2022/07/18 02:02:38;;;;;;;1.75;0.80;;;;;;;21.67;64.06;101775.59;4957144;28;102343;-66
2022/07/18 02:05:06;;;;;;;0.73;0.73;;;;;;;21.67;64.30;101773.63;4952918;28;102224;-68
2022/07/18 02:07:35;;;;;;;0.80;0.80;;;;;;;21.68;64.25;101777.25;4945608;28;104357;-65
2022/07/18 02:10:07;;;;;;;0.77;0.73;;;;;;;21.67;64.43;101770.88;4946128;28;102403;-64
2022/07/18 02:12:36;;;;;;;1.38;0.90;;;;;;;21.67;63.97;101775.59;4955516;28;102371;-65
2022/07/18 02:15:04;;;;;;;0.70;0.70;;;;;;;21.67;64.43;101781.13;4947812;28;102273;-65
2022/07/18 02:17:31;;;;;;;0.82;0.73;;;;;;;21.67;64.27;101776.41;4955075;28;103925;-65
2022/07/18 02:19:58;;;;;;;1.45;0.70;;;;;;;21.67;64.38;101787.50;4947946;28;102194;-66
2022/07/18 02:22:25;;;;;;;1.13;0.60;;;;;;;21.67;64.13;101784.72;4942280;28;103658;-65
2022/07/18 02:24:52;;;;;;;1.58;0.65;;;;;;;21.66;64.17;101785.06;4959223;28;102409;-65
2022/07/18 02:27:19;;;;;;;1.85;0.70;;;;;;;21.66;64.34;101785.06;4956930;28;104024;-65
2022/07/18 02:29:47;;;;;;;1.35;0.70;;;;;;;21.66;64.56;101790.59;4952604;28;102475;-66
2022/07/18 02:32:14;;;;;;;0.60;0.60;;;;;;;21.66;64.26;101785.88;4956408;28;102396;-65
2022/07/18 02:34:41;;;;;;;0.85;0.65;;;;;;;21.67;64.48;101787.50;4953404;28;102253;-66
2022/07/18 02:37:07;;;;;;;1.05;0.73;;;;;;;21.67;64.34;101781.94;4950057;28;103632;-66
2022/07/18 02:39:34;;;;;;;0.75;0.70;;;;;;;21.66;64.59;101793.38;4957509;28;102313;-66
2022/07/18 02:42:01;;;;;;;0.85;0.70;;;;;;;21.66;64.45;101790.59;4956818;28;102121;-66
2022/07/18 02:44:27;;;;;;;0.70;0.70;;;;;;;21.64;64.35;101796.47;4958114;28;102167;-65
2022/07/18 02:46:55;;;;;;;1.10;0.70;;;;;;;21.66;64.36;101790.59;4951467;28;103886;-65
2022/07/18 02:49:28;;;;;;;1.47;0.80;;;;;;;21.67;64.52;101801.34;4958014;28;102330;-65
2022/07/18 02:51:55;;;;;;;1.20;0.80;;;;;;;21.66;64.24;101808.03;4957157;28;102266;-65
2022/07/18 02:54:23;;;;;;;1.60;0.63;;;;;;;21.66;64.12;101805.25;4955330;28;102966;-65
2022/07/18 02:56:50;;;;;;;1.05;0.90;;;;;;;21.66;64.41;101813.56;4954146;28;104082;-65
2022/07/18 02:59:16;;;;;;;2.38;0.90;;;;;;;21.66;64.23;101808.03;4956462;28;102224;-65
2022/07/18 03:01:43;;;;;;;3.05;0.93;;;;;;;21.67;64.52;101817.16;4949374;28;101952;-65
2022/07/18 03:04:11;;;;;;;1.60;0.70;;;;;;;21.67;64.34;101820.72;4958482;28;102129;-65
2022/07/18 03:06:38;;;;;;;;;;;;;;;21.67;64.41;101825.47;4949580;28;103926;-65
2022/07/18 03:09:05;;;;;;;1.20;0.90;;;;;;;21.67;64.01;101826.28;4952773;28;102279;-65
2022/07/18 03:11:31;;;;;;;1.50;0.80;;;;;;;21.66;64.43;101830.19;4947941;28;102829;-66
2022/07/18 03:13:58;;;;;;;1.00;1.00;;;;;;;21.67;64.87;101826.28;4958300;28;102733;-66
2022/07/18 03:16:25;;;;;;;1.20;0.90;;;;;;;21.67;64.44;101829.03;4954928;28;103862;-65
2022/07/18 03:18:51;;;;;;;0.80;0.73;;;;;;;21.67;64.45;101822.69;4957078;28;102014;-66
2022/07/18 03:21:20;;;;;;;1.10;0.80;;;;;;;21.64;64.76;101832.47;4957169;28;102399;-65
2022/07/18 03:23:47;;;;;;;1.00;0.80;;;;;;;21.65;65.33;101830.53;4958115;28;102234;-64
2022/07/18 03:26:13;;;;;;;1.00;0.70;;;;;;;21.64;64.69;101832.47;4956513;28;103923;-65
2022/07/18 03:28:40;;;;;;;1.85;0.80;;;;;;;21.64;64.89;101823.31;4954280;28;102453;-66
2022/07/18 03:31:07;;;;;;;2.70;0.95;;;;;;;21.64;64.84;101826.94;4956827;28;102105;-66
2022/07/18 03:33:33;;;;;;;1.30;0.85;;;;;;;21.64;65.50;101821.41;4957920;28;102176;-65
2022/07/18 03:36:00;;;;;;;1.83;0.88;;;;;;;21.65;65.15;101827.75;4956212;28;104104;-66
2022/07/18 03:38:28;;;;;;;0.75;0.70;;;;;;;21.66;65.32;101821.06;4955141;28;102456;-67
2022/07/18 03:40:54;;;;;;;0.63;0.63;;;;;;;21.64;65.76;101815.84;4955562;28;102411;-66
2022/07/18 03:43:21;;;;;;;1.25;0.80;;;;;;;21.64;65.68;101820.56;4957227;28;102231;-65
2022/07/18 03:45:48;;;;;;;0.68;0.68;;;;;;;21.63;65.66;101830.81;4955516;28;104124;-66
2022/07/18 03:48:14;;;;;;;1.50;0.57;;;;;;;21.62;65.50;101823.66;4955473;28;102430;-67
2022/07/18 03:50:41;;;;;;;1.35;0.77;;;;;;;21.62;65.45;101823.66;4955049;28;102077;-66
2022/07/18 03:53:08;;;;;;;0.52;0.47;;;;;;;21.61;65.67;101822.03;4944294;28;102425;-65
2022/07/18 03:55:36;;;;;;;0.57;0.57;;;;;;;21.62;65.75;101818.13;4937472;28;103875;-65
2022/07/18 03:58:02;;;;;;;2.87;0.80;;;;;;;21.62;65.64;101814.53;4938038;28;102306;-66
2022/07/18 04:00:29;;;;;;;1.58;0.80;;;;;;;21.62;65.84;101817.31;4937901;28;102080;-66
2022/07/18 04:02:56;;;;;;;1.25;0.90;;;;;;;21.62;65.83;101817.31;4938996;28;102391;-66
2022/07/18 04:05:22;;;;;;;0.90;0.70;;;;;;;21.61;65.77;101816.50;4943677;28;104161;-65
2022/07/18 04:07:49;;;;;;;0.70;0.70;;;;;;;21.60;65.59;101814.84;4954522;28;102017;-57
2022/07/18 04:10:15;;;;;;;1.00;0.90;;;;;;;21.62;65.59;101818.13;4943897;28;102533;-66
2022/07/18 04:12:48;;;;;;;1.45;0.80;;;;;;;21.61;65.96;101807.38;4946995;28;102377;-64
2022/07/18 04:15:15;;;;;;;0.82;0.80;;;;;;;21.62;65.95;101804.25;4952501;28;103877;-66
2022/07/18 04:17:44;;;;;;;0.82;0.73;;;;;;;21.63;65.63;101813.38;4938669;28;102292;-66
2022/07/18 04:20:11;;;;;;;0.80;0.80;;;;;;;21.62;65.81;101820.06;4937588;28;102255;-65
2022/07/18 04:22:45;;;;;;;0.95;0.80;;;;;;;21.61;65.51;101816.50;4939575;28;102274;-66
2022/07/18 04:25:12;;;;;;;1.30;0.70;;;;;;;21.62;65.69;101823.66;4946254;28;104448;-65
2022/07/18 04:27:39;;;;;;;1.17;0.77;;;;;;;21.62;65.34;101817.31;4956424;28;102339;-65
2022/07/18 04:30:10;;;;;;;1.98;0.93;;;;;;;21.62;65.20;101818.13;4956185;28;102040;-66
2022/07/18 04:32:37;;;;;;;0.68;0.60;;;;;;;21.61;65.44;101815.69;4957713;28;102148;-67
2022/07/18 04:35:05;;;;;;;2.00;0.88;;;;;;;21.62;65.22;101814.53;4948676;28;103895;-66
2022/07/18 04:37:32;;;;;;;1.03;0.90;;;;;;;21.62;65.28;101823.66;4937170;28;102063;-66
2022/07/18 04:39:58;;;;;;;2.90;0.90;;;;;;;21.61;65.38;101818.44;4945329;28;102174;-66
2022/07/18 04:42:25;;;;;;;2.80;0.82;;;;;;;21.63;65.31;101822.50;4957437;28;102188;-66
2022/07/18 04:44:54;;;;;;;0.60;0.60;;;;;;;21.61;65.84;101816.50;4956432;28;104027;-66
2022/07/18 04:47:22;;;;;;;1.45;0.80;;;;;;;21.60;65.19;101812.06;4955997;28;102132;-65
2022/07/18 04:49:49;;;;;;;1.93;0.80;;;;;;;21.61;65.24;101816.50;4941621;28;103553;-65
2022/07/18 04:52:16;;;;;;;2.05;0.82;;;;;;;21.62;65.41;101817.31;4941553;28;102162;-67
2022/07/18 04:54:43;;;;;;;0.60;0.60;;;;;;;21.61;65.49;101816.50;4955699;28;103871;-66
2022/07/18 04:57:11;;;;;;;1.33;0.80;;;;;;;21.62;65.67;101822.84;4955932;28;102097;-65
2022/07/18 04:59:38;;;;;;;2.45;0.70;;;;;;;21.64;65.55;101820.56;4954408;28;102125;-67
2022/07/18 05:02:05;;;;;;;1.08;0.70;;;;;;;21.63;65.75;101814.19;4957385;28;102429;-67
2022/07/18 05:04:33;;;;;;;1.10;0.80;;;;;;;21.65;65.55;101811.13;4939568;28;104018;-66
2022/07/18 05:07:00;;;;;;;0.50;0.50;;;;;;;21.65;65.81;101814.72;4946667;28;102350;-66
2022/07/18 05:09:27;;;;;;;0.93;0.80;;;;;;;21.67;65.72;101808.84;4959749;28;102498;-65
2022/07/18 05:11:54;;;;;;;0.68;0.55;;;;;;;21.67;65.84;101812.41;4956113;28;102423;-65
2022/07/18 05:14:21;;;;;;;2.10;0.60;;;;;;;21.68;65.73;101816.84;4959350;28;103968;-67
2022/07/18 05:16:48;;;;;;;0.80;0.80;;;;;;;21.68;65.51;101816.03;4959804;28;102205;-65
2022/07/18 05:19:17;;;;;;;0.95;0.60;;;;;;;21.68;65.73;101816.84;4958535;28;101867;-66
2022/07/18 05:21:45;;;;;;;1.23;0.60;;;;;;;21.70;65.47;101813.75;4958514;28;102561;-65
2022/07/18 05:24:12;;;;;;;1.13;0.70;;;;;;;21.72;65.30;101822.56;4958853;28;104070;-66
2022/07/18 05:26:38;;;;;;;0.80;0.80;;;;;;;21.72;65.61;101817.84;4958829;28;102085;-66
2022/07/18 05:29:05;;;;;;;2.33;0.73;;;;;;;21.73;65.59;101819.47;4959461;28;102161;-65
2022/07/18 05:31:31;;;;;;;1.75;0.73;;;;;;;21.72;65.59;101812.28;4960621;28;102549;-65
2022/07/18 05:33:58;;;;;;;0.70;0.70;;;;;;;21.76;65.52;101813.28;4958064;28;103901;-65
2022/07/18 05:36:25;;;;;;;0.93;0.65;;;;;;;21.80;65.65;101819.81;4943813;28;101982;-65
2022/07/18 05:38:53;;;;;;;0.70;0.55;;;;;;;21.81;66.01;101821.44;4939506;28;102160;-66
2022/07/18 05:41:19;;;;;;;0.60;0.60;;;;;;;21.83;65.87;101818.38;4945937;28;103620;-65
2022/07/18 05:43:46;;;;;;;0.80;0.52;;;;;;;21.84;65.88;101825.53;4940042;28;103858;-66
2022/07/18 05:46:13;;;;;;;0.65;0.60;;;;;;;21.84;66.39;101826.34;4943706;28;102148;-65
2022/07/18 05:48:39;;;;;;;0.95;0.77;;;;;;;21.90;66.19;101823.44;4959038;28;101986;-65
2022/07/18 05:51:07;;;;;;;1.05;0.65;;;;;;;21.94;66.26;101829.97;4954353;28;102607;-65
2022/07/18 05:53:34;;;;;;;0.93;0.70;;;;;;;21.93;66.39;101826.38;4945811;28;103875;-66
2022/07/18 05:56:02;;;;;;;1.00;0.75;;;;;;;21.96;66.18;101827.69;4949585;28;102353;-65
2022/07/18 05:58:28;;;;;;;1.47;0.70;;;;;;;21.95;66.26;101820.50;4955680;28;102202;-66
2022/07/18 06:00:55;;;;;;;1.02;0.77;;;;;;;21.97;66.22;101830.16;4954345;28;102226;-64
2022/07/18 06:03:22;;;;;;;0.90;0.50;;;;;;;22.00;65.94;101823.97;4955738;28;104054;-65
2022/07/18 06:05:48;;;;;;;0.63;0.50;;;;;;;22.00;66.30;101818.41;4950876;28;102192;-66
2022/07/18 06:08:14;;;;;;;0.90;0.70;;;;;;;22.01;66.24;101820.03;4955402;28;102234;-65
2022/07/18 06:10:41;;;;;;;1.20;0.52;;;;;;;22.01;66.26;101820.03;4950111;28;102132;-65
2022/07/18 06:13:09;;;;;;;0.82;0.60;;;;;;;21.98;66.42;101811.56;4952462;28;103814;-65
2022/07/18 06:15:35;;;;;;;1.10;0.70;;;;;;;21.97;66.62;101815.47;4939817;28;102386;-65
2022/07/18 06:18:02;;;;;;;0.57;0.57;;;;;;;21.97;66.23;101823.78;4957504;28;102220;-65
2022/07/18 06:20:29;;;;;;;0.70;0.70;;;;;;;21.99;65.99;101815.94;4959026;28;102235;-65
2022/07/18 06:22:55;;;;;;;0.73;0.60;;;;;;;22.01;65.99;101813.69;4945840;28;103032;-65
2022/07/18 06:25:21;;;;;;;1.33;0.80;;;;;;;21.99;66.31;101819.53;4946143;28;102216;-66
2022/07/18 06:27:48;;;;;;;1.27;0.57;;;;;;;22.00;66.00;101807.34;4948084;28;102491;-65
2022/07/18 06:30:16;;;;;;;0.60;0.50;;;;;;;22.04;66.13;101815.81;4956726;28;102077;-67
2022/07/18 06:32:43;;;;;;;1.23;0.70;;;;;;;22.02;66.26;101816.13;4947625;28;103945;-65
2022/07/18 06:35:27;;;;;;;1.88;0.70;;;;;;;22.02;66.24;101826.41;4952147;28;102481;-65
2022/07/18 06:37:54;;;;;;;0.57;0.57;;;;;;;22.00;66.20;101825.91;4949239;28;103874;-66
2022/07/18 06:40:20;;;;;;;0.70;0.70;;;;;;;22.01;66.20;101819.22;4948059;28;102744;-66
2022/07/18 06:42:47;;;;;;;0.98;0.60;;;;;;;22.02;66.53;101805.03;4956106;28;104016;-65
2022/07/18 06:45:13;;;;;;;0.50;0.50;;;;;;;22.05;66.03;101815.47;4955015;28;102237;-64
2022/07/18 06:47:42;;;;;;;0.50;0.50;;;;;;;22.02;65.94;101816.13;4959408;28;101994;-65
2022/07/18 06:50:09;;;;;;;0.73;0.70;;;;;;;22.03;66.14;101801.16;4947821;28;102151;-65
2022/07/18 06:52:43;;;;;;;1.73;1.02;;;;;;;22.05;66.22;101796.06;4943076;28;103888;-65
2022/07/18 06:55:10;;;;;;;1.67;0.70;;;;;;;22.08;65.98;101800.97;4957722;28;101954;-65
2022/07/18 06:57:37;;;;;;;0.50;0.50;;;;;;;22.12;66.33;101798.38;4951432;28;102157;-65
2022/07/18 07:00:07;;;;;;;0.68;0.55;;;;;;;22.09;66.22;101793.47;4957559;28;102268;-65
2022/07/18 07:02:34;;;;;;;1.50;0.50;;;;;;;22.10;66.24;101791.50;4959013;28;103864;-65
2022/07/18 07:05:02;;;;;;;0.63;0.60;;;;;;;22.12;66.15;101787.28;4942577;28;102408;-66
2022/07/18 07:07:29;;;;;;;2.33;0.70;;;;;;;22.12;66.23;101792.03;4956458;28;102508;-65
2022/07/18 07:09:55;;;;;;;1.10;0.80;;;;;;;22.10;66.12;101795.09;4958333;28;102198;-65
2022/07/18 07:12:22;;;;;;;0.60;0.60;;;;;;;22.08;66.35;101792.66;4955565;28;103926;-66
2022/07/18 07:14:48;;;;;;;0.85;0.45;;;;;;;22.10;66.12;101788.75;4941127;28;102263;-66
2022/07/18 07:17:15;;;;;;;0.70;0.63;;;;;;;22.12;66.33;101790.06;4946589;28;102193;-66
2022/07/18 07:19:41;;;;;;;0.60;0.52;;;;;;;22.13;65.94;101794.47;4960142;28;102093;-66
2022/07/18 07:22:09;;;;;;;0.80;0.70;;;;;;;22.14;65.98;101798.88;4958053;28;103870;-65
2022/07/18 07:24:38;;;;;;;0.60;0.60;;;;;;;22.15;66.40;101792.22;4959017;28;102373;-65
2022/07/18 07:27:04;;;;;;;0.60;0.60;;;;;;;22.12;66.17;101792.84;4953436;28;102093;-65
2022/07/18 07:29:31;;;;;;;0.63;0.63;;;;;;;22.12;66.16;101795.59;4957025;28;102169;-65
2022/07/18 07:31:57;;;;;;;3.40;0.75;;;;;;;22.16;66.14;101781.94;4938229;28;103935;-66
2022/07/18 07:34:24;;;;;;;1.52;0.68;;;;;;;22.18;66.18;101785.19;4951379;28;102939;-65
2022/07/18 07:36:50;;;;;;;0.98;0.60;;;;;;;22.15;66.16;101783.91;4954051;28;102916;-65
2022/07/18 07:39:18;;;;;;;0.63;0.60;;;;;;;22.14;66.27;101784.19;4956219;28;102591;-65
2022/07/18 07:41:45;;;;;;;0.75;0.65;;;;;;;22.13;66.44;101777.81;4950040;28;103971;-66
2022/07/18 07:44:12;;;;;;;1.38;0.82;;;;;;;22.14;66.18;101779.47;4951317;28;102422;-65
2022/07/18 07:46:42;;;;;;;0.52;0.50;;;;;;;22.14;66.19;101775.88;4945201;28;102742;-65
2022/07/18 07:49:08;;;;;;;1.00;0.65;;;;;;;22.14;66.38;101778.63;4952203;28;104284;-66
2022/07/18 07:51:35;;;;;;;0.68;0.68;;;;;;;22.10;66.26;101772.91;4947537;28;103838;-66
2022/07/18 07:54:01;;;;;;;2.45;0.57;;;;;;;22.13;66.03;101783.38;4952373;28;101962;-66
2022/07/18 07:56:43;;;;;;;1.55;0.50;;;;;;;22.13;66.20;101783.38;4947423;28;101985;-66
2022/07/18 07:59:10;;;;;;;0.65;0.57;;;;;;;22.14;65.29;101773.94;4940094;28;102472;-66
2022/07/18 08:01:37;;;;;;;0.77;0.55;;;;;;;22.18;65.65;101779.66;4950227;28;104164;-67
2022/07/18 08:04:03;;;;;;;0.82;0.82;;;;;;;22.16;66.02;101773.63;4945681;28;102118;-66
2022/07/18 08:06:30;;;;;;;0.60;0.50;;;;;;;22.15;66.06;101770.03;4951681;28;102362;-67
2022/07/18 08:08:57;;;;;;;0.80;0.60;;;;;;;22.17;65.87;101773.28;4955554;28;102463;-65
2022/07/18 08:11:23;;;;;;;0.50;0.50;;;;;;;22.17;66.29;101772.47;4951449;28;103889;-66
2022/07/18 08:13:54;;;;;;;1.30;0.73;;;;;;;22.18;66.08;101765.78;4951758;28;102483;-66
2022/07/18 08:16:20;;;;;;;0.50;0.50;;;;;;;22.18;65.86;101768.56;4944687;28;102024;-65
2022/07/18 08:18:48;;;;;;;1.17;0.63;;;;;;;22.17;65.93;101772.47;4937846;28;102406;-66
2022/07/18 08:21:14;;;;;;;0.75;0.70;;;;;;;22.17;65.68;101766.94;4949023;28;103871;-65
2022/07/18 08:23:41;;;;;;;0.52;0.52;;;;;;;22.18;66.00;101771.34;4953705;28;102604;-66
2022/07/18 08:26:10;;;;;;;1.10;0.60;;;;;;;22.17;66.25;101756.66;4937596;28;101981;-66
2022/07/18 08:28:36;;;;;;;0.60;0.60;;;;;;;22.18;65.64;101763.84;4951344;28;102237;-66
2022/07/18 08:31:04;;;;;;;0.95;0.70;;;;;;;22.19;65.57;101759.94;4953977;28;103855;-66
2022/07/18 08:33:31;;;;;;;0.98;0.90;;;;;;;22.18;65.75;101758.31;4941835;28;102174;-66
2022/07/18 08:35:58;;;;;;;0.93;0.60;;;;;;;22.19;65.73;101757.16;4939959;28;102744;-66
2022/07/18 08:38:24;;;;;;;0.70;0.70;;;;;;;22.20;65.42;101750.47;4954167;28;102203;-66
2022/07/18 08:40:53;;;;;;;0.52;0.52;;;;;;;22.20;66.11;101760.75;4940151;28;104114;-65
2022/07/18 08:43:19;;;;;;;1.25;0.57;;;;;;;22.18;65.73;101755.53;4950311;28;102053;-62
2022/07/18 08:45:47;;;;;;;1.17;0.77;;;;;;;22.18;66.02;101744.44;4960075;28;102193;-66
2022/07/18 08:48:16;;;;;;;0.80;0.60;;;;;;;22.18;66.04;101747.22;4956051;28;102538;-66
2022/07/18 09:05:20;;;;;;;0.57;0.57;;;;;;;22.18;65.85;101758.31;4971022;27;1436375;-67
2022/07/18 09:07:48;;;;;;;1.17;0.80;;;;;;;22.18;65.58;101755.53;5002697;28;102664;-67
2022/07/18 09:10:23;;;;;;;0.70;0.70;;;;;;;22.17;65.76;101745.56;4997920;28;103906;-67
2022/07/18 09:12:57;;;;;;;1.75;0.82;;;;;;;22.17;66.09;101753.88;4991753;28;102395;-67
2022/07/18 09:15:24;;;;;;;1.38;0.88;;;;;;;22.19;65.83;101761.91;5005072;28;102174;-64
2022/07/18 09:17:59;;;;;;;1.00;0.95;;;;;;;22.18;65.79;101738.06;5002568;28;102266;-66
2022/07/18 09:20:28;;;;;;;1.40;0.80;;;;;;;22.19;65.81;101745.25;5009702;28;103854;-66
2022/07/18 09:22:54;;;;;;;2.00;0.80;;;;;;;22.19;65.92;101748.84;5009163;28;103841;-66
2022/07/18 09:25:24;;;;;;;;;;;;;;;22.19;65.65;101742.47;4999392;28;102343;-67
2022/07/18 09:27:52;;;;;;;1.20;0.90;;;;;;;22.18;66.11;101750.00;5006968;28;102237;-67
2022/07/18 09:30:23;;;;;;;0.70;0.60;;;;;;;22.17;65.95;101751.13;4997974;28;103916;-67
2022/07/18 09:33:10;;;;;;;0.82;0.80;;;;;;;22.17;66.08;101745.56;4994685;28;102418;-66
2022/07/18 09:35:43;;;;;;;2.40;0.90;;;;;;;22.18;65.62;101746.38;4999265;28;102226;-67
2022/07/18 09:38:11;;;;;;;2.03;0.90;;;;;;;22.17;64.98;101740.03;5014242;28;101960;-67
2022/07/18 09:40:39;;;;;;;0.85;0.85;;;;;;;22.18;64.67;101750.00;5009517;28;104048;-67
2022/07/18 09:43:07;;;;;;;0.80;0.80;;;;;;;22.17;63.91;101751.13;5012472;28;102178;-67
2022/07/18 09:45:37;;;;;;;0.85;0.77;;;;;;;22.17;64.90;101744.75;5009115;28;102249;-67
2022/07/18 09:48:06;;;;;;;0.90;0.75;;;;;;;22.16;65.39;101746.72;5004599;28;102579;-67
2022/07/18 09:50:35;;;;;;;0.68;0.68;;;;;;;22.15;65.49;101750.63;5011941;28;103914;-67
2022/07/18 09:53:09;;;;;;;0.95;0.88;;;;;;;22.16;64.20;101755.03;5011374;28;102301;-66
2022/07/18 09:55:41;;;;;;;2.45;1.05;;;;;;;22.14;65.10;101754.53;4991159;28;102338;-67
2022/07/18 09:58:08;;;;;;;0.80;0.80;;;;;;;22.11;65.29;101752.41;4975116;28;102373;-67
2022/07/18 10:00:36;;;;;;;1.80;0.80;;;;;;;22.10;65.85;101745.19;4978473;28;103904;-67
2022/07/18 10:03:05;;;;;;;1.05;0.95;;;;;;;22.10;65.46;101749.94;4982546;28;101983;-67
2022/07/18 10:05:33;;;;;;;1.30;1.03;;;;;;;22.09;65.57;101749.13;4981079;28;102261;-66
2022/07/18 10:08:01;;;;;;;3.88;0.85;;;;;;;22.08;65.61;101740.00;4979155;28;102668;-66
2022/07/18 10:10:30;;;;;;;0.93;0.93;;;;;;;22.07;65.64;101735.59;4978695;28;104061;-66
2022/07/18 10:12:58;;;;;;;;;;;;;;;22.08;65.91;101736.41;4980308;28;102198;-67
2022/07/18 10:15:26;;;;;;;0.88;0.88;;;;;;;22.08;64.95;101733.63;4960937;28;102790;-67
2022/07/18 10:17:52;;;;;;;1.10;0.80;;;;;;;22.07;65.30;101732.00;4965122;28;102485;-66
2022/07/18 10:20:26;;;;;;;0.80;0.80;;;;;;;22.06;65.20;101730.38;4977837;28;104035;-67
2022/07/18 10:22:55;;;;;;;1.42;0.85;;;;;;;22.06;64.79;101725.63;4959709;28;102362;-67
2022/07/18 10:25:23;;;;;;;1.10;1.00;;;;;;;22.07;65.80;101720.94;4959349;28;102100;-67
2022/07/18 10:27:54;;;;;;;1.00;0.90;;;;;;;22.06;65.34;101727.59;4976417;28;102426;-66
2022/07/18 10:30:35;;;;;;;0.80;0.80;;;;;;;22.05;65.43;101712.09;4973181;28;103830;-67
2022/07/18 10:33:03;;;;;;;1.25;0.93;;;;;;;22.04;65.83;101714.06;4974806;28;102338;-66
2022/07/18 10:35:59;;;;;;;1.00;0.90;;;;;;;22.05;65.54;101715.69;4977298;28;104505;-68
2022/07/18 10:38:26;;;;;;;1.10;1.00;;;;;;;22.07;63.62;101724.50;4979484;28;102341;-67
2022/07/18 10:41:05;;;;;;;2.22;0.93;;;;;;;22.04;65.06;101718.81;4977063;28;103901;-67
2022/07/18 10:43:36;;;;;;;0.93;0.90;;;;;;;22.03;64.37;101719.91;4978973;28;102178;-66
2022/07/18 10:46:04;;;;;;;1.15;1.00;;;;;;;22.01;65.70;101709.16;4978483;28;102203;-67
2022/07/18 10:48:54;;;;;;;1.13;1.13;;;;;;;22.02;65.42;101723.84;4975679;28;102225;-67
2022/07/18 10:51:30;;;;;;;1.13;0.88;;;;;;;22.01;65.18;101719.44;4977001;28;104130;-67
2022/07/18 10:54:03;;;;;;;0.93;0.93;;;;;;;22.01;65.24;101711.94;4977755;28;102374;-66
2022/07/18 10:57:05;;;;;;;1.20;1.10;;;;;;;22.02;64.11;101704.44;4978687;28;102435;-67
2022/07/18 10:59:35;;;;;;;1.40;0.93;;;;;;;22.00;65.08;101698.41;4978361;28;102233;-67
2022/07/18 11:02:05;;;;;;;2.10;1.30;;;;;;;22.01;65.52;101708.34;4978147;28;104216;-67
2022/07/18 11:04:38;;;;;;;1.02;1.00;;;;;;;22.00;65.16;101701.19;4972034;28;102059;-67
2022/07/18 11:07:09;;;;;;;1.58;1.10;;;;;;;22.01;64.84;101705.59;4970445;28;102186;-67
2022/07/18 11:09:41;;;;;;;2.08;1.20;;;;;;;22.01;65.04;101700.03;4978484;28;102523;-67
2022/07/18 11:12:29;;;;;;;1.05;0.95;;;;;;;21.98;65.10;101698.72;4977532;28;103949;-68
2022/07/18 11:15:06;;;;;;;1.30;1.20;;;;;;;22.01;65.09;101697.28;4973064;28;102163;-67
2022/07/18 11:17:59;;;;;;;1.30;1.20;;;;;;;21.98;65.06;101693.19;4973373;28;102271;-67
2022/07/18 11:20:37;;;;;;;1.13;1.00;;;;;;;22.00;64.83;101690.09;4959545;28;102290;-67
2022/07/18 11:23:13;;;;;;;1.50;1.00;;;;;;;21.98;65.10;101693.19;4959070;28;104208;-67
2022/07/18 11:25:40;;;;;;;0.95;0.95;;;;;;;21.99;64.76;101694.00;4977568;28;102088;-67
2022/07/18 11:28:08;;;;;;;1.48;0.93;;;;;;;21.99;65.14;101694.00;4976305;28;102187;-67
2022/07/18 11:30:37;;;;;;;1.10;1.00;;;;;;;21.99;65.17;101694.00;4978666;28;102221;-68
2022/07/18 11:33:03;;;;;;;;;;;;;;;21.98;64.77;101697.91;4969618;28;104102;-68
2022/07/18 11:35:36;;;;;;;1.00;1.00;;;;;;;21.97;65.36;101679.66;4970256;28;102436;-66
2022/07/18 11:38:05;;;;;;;1.25;1.05;;;;;;;21.95;65.13;101671.66;4976912;28;102276;-67
2022/07/18 11:40:32;;;;;;;1.02;1.00;;;;;;;21.97;64.42;101668.56;4977567;28;102525;-67
2022/07/18 11:42:58;;;;;;;1.10;1.00;;;;;;;21.97;64.29;101671.34;4977371;28;103974;-67